Time;durP1;ratioP1;P1;durP2;ratioP2;P2;SDS_P1;SDS_P2;PMS_P1;PMS_P2;Temp;Humidity;BMP_temperature;BMP_pressure;BME280_temperature;BME280_humidity;BME280_pressure;Samples;Min_cycle;Max_cycle;Signal;HPM_P1;HPM_P2
2021/03/04 00:00:11;;;;;;;42.03;18.42;;;4.80;99.90;;;;;;5050228;28;20475;-76
2021/03/04 00:02:37;;;;;;;41.83;18.42;;;4.80;99.90;;;;;;5048178;28;20025;-77
2021/03/04 00:05:08;;;;;;;42.42;18.33;;;4.80;99.90;;;;;;5050575;28;20029;-76
2021/03/04 00:07:35;;;;;;;44.03;17.77;;;4.70;99.90;;;;;;5031807;28;20036;-76
2021/03/04 00:10:01;;;;;;;43.20;17.58;;;4.70;99.90;;;;;;5050248;28;20043;-76
2021/03/04 00:12:27;;;;;;;38.47;18.00;;;4.80;99.90;;;;;;5049036;28;20064;-76
2021/03/04 00:14:52;;;;;;;39.20;18.70;;;4.80;99.90;;;;;;5032154;28;20057;-76
2021/03/04 00:17:18;;;;;;;40.13;18.13;;;4.80;99.90;;;;;;5031511;28;20036;-75
2021/03/04 00:19:44;;;;;;;40.60;17.55;;;4.70;99.90;;;;;;5050260;28;20017;-75
2021/03/04 00:22:10;;;;;;;37.20;16.70;;;4.70;99.90;;;;;;5050242;28;20484;-76
2021/03/04 00:24:35;;;;;;;41.20;17.17;;;4.70;99.90;;;;;;5049064;28;20037;-76
2021/03/04 00:27:01;;;;;;;43.28;18.17;;;4.60;99.90;;;;;;5048797;28;20048;-75
2021/03/04 00:29:27;;;;;;;34.58;16.83;;;4.60;99.90;;;;;;5050099;28;20041;-76
2021/03/04 00:31:53;;;;;;;44.05;18.98;;;4.60;99.90;;;;;;5050203;28;20026;-76
2021/03/04 00:34:19;;;;;;;43.63;19.05;;;4.60;99.90;;;;;;5032390;28;20470;-76
2021/03/04 00:36:45;;;;;;;45.40;18.17;;;4.60;99.90;;;;;;5047708;28;20041;-75
2021/03/04 00:39:10;;;;;;;40.00;17.58;;;4.60;99.90;;;;;;5048826;28;20044;-76
2021/03/04 00:41:36;;;;;;;40.25;17.00;;;4.60;99.90;;;;;;5048853;28;20104;-76
2021/03/04 00:44:04;;;;;;;37.75;16.55;;;4.60;99.90;;;;;;5049728;28;20018;-76
2021/03/04 00:46:30;;;;;;;41.38;17.35;;;4.60;99.90;;;;;;5047394;28;20098;-77
2021/03/04 00:48:56;;;;;;;32.28;16.67;;;4.60;99.90;;;;;;5050165;28;20140;-76
2021/03/04 00:51:21;;;;;;;46.70;19.08;;;4.60;99.90;;;;;;5049860;28;20119;-76
2021/03/04 00:53:47;;;;;;;42.53;18.95;;;4.60;99.90;;;;;;5048446;28;20402;-76
2021/03/04 00:56:13;;;;;;;41.72;18.77;;;4.70;99.90;;;;;;5052223;28;20032;-76
2021/03/04 00:58:38;;;;;;;41.15;19.23;;;4.80;99.90;;;;;;5052487;28;20029;-76
2021/03/04 01:01:05;;;;;;;41.83;18.40;;;4.70;99.90;;;;;;5053810;28;20545;-76
2021/03/04 01:03:31;;;;;;;43.97;19.88;;;4.70;99.90;;;;;;5035996;28;20110;-76
2021/03/04 01:05:57;;;;;;;46.60;20.27;;;4.70;99.90;;;;;;5053781;28;20025;-76
2021/03/04 01:08:23;;;;;;;38.65;18.40;;;4.60;99.90;;;;;;5050949;28;20119;-75
2021/03/04 01:10:48;;;;;;;41.88;18.17;;;4.60;99.90;;;;;;5052077;28;20131;-75
2021/03/04 01:13:14;;;;;;;42.35;18.13;;;4.70;99.90;;;;;;5052796;28;20029;-75
2021/03/04 01:15:40;;;;;;;38.65;16.85;;;4.70;99.90;;;;;;5053062;28;20127;-75
2021/03/04 01:18:06;;;;;;;38.55;17.60;;;4.70;99.90;;;;;;5051894;28;20021;-75
2021/03/04 01:20:33;;;;;;;41.13;17.95;;;4.70;99.90;;;;;;5052951;28;20029;-75
2021/03/04 01:22:59;;;;;;;40.83;17.38;;;4.60;99.90;;;;;;5053237;28;20025;-75
2021/03/04 01:25:25;;;;;;;39.40;17.98;;;4.60;99.90;;;;;;5052661;28;20108;-75
2021/03/04 01:27:52;;;;;;;43.50;18.88;;;4.50;99.90;;;;;;5051646;28;20128;-75
2021/03/04 01:30:27;;;;;;;39.35;18.63;;;4.50;99.90;;;;;;5051781;28;20098;-75
2021/03/04 01:32:53;;;;;;;47.80;20.27;;;4.50;99.90;;;;;;5052999;28;20033;-75
2021/03/04 01:35:18;;;;;;;39.88;18.63;;;4.50;99.90;;;;;;5052796;28;20031;-75
2021/03/04 01:37:44;;;;;;;36.78;16.85;;;4.50;99.90;;;;;;5050426;28;20064;-75
2021/03/04 01:40:13;;;;;;;37.70;18.67;;;4.60;99.90;;;;;;5052841;28;20021;-75
2021/03/04 01:42:39;;;;;;;42.90;18.25;;;4.50;99.90;;;;;;5080281;28;20377;-75
2021/03/04 01:45:06;;;;;;;40.75;16.98;;;4.40;99.90;;;;;;5051572;28;20036;-75
2021/03/04 01:47:32;;;;;;;38.78;17.40;;;4.40;99.90;;;;;;5051107;28;20395;-75
2021/03/04 01:49:59;;;;;;;44.97;19.55;;;4.40;99.90;;;;;;5052713;28;20603;-75
2021/03/04 01:52:25;;;;;;;40.33;19.27;;;4.40;99.90;;;;;;5052582;28;20562;-75
2021/03/04 01:54:52;;;;;;;45.25;19.65;;;4.40;99.90;;;;;;5051972;28;20029;-75
2021/03/04 01:57:18;;;;;;;39.60;18.05;;;4.40;99.90;;;;;;5050889;28;20449;-75
2021/03/04 01:59:45;;;;;;;43.70;18.45;;;4.30;99.90;;;;;;5035535;28;20108;-75
2021/03/04 02:02:12;;;;;;;43.78;18.58;;;4.40;99.90;;;;;;5044829;28;20029;-75
2021/03/04 02:04:37;;;;;;;44.70;18.88;;;4.40;99.90;;;;;;5050945;28;20086;-75
2021/03/04 02:07:18;;;;;;;42.28;18.25;;;4.40;99.90;;;;;;5049061;28;20033;-75
2021/03/04 02:10:20;;;;;;;46.80;18.98;;;4.40;99.90;;;;;;5050434;28;20028;-75
2021/03/04 02:13:03;;;;;;;46.13;18.38;;;4.40;99.90;;;;;;5042924;28;20072;-75
2021/03/04 02:16:04;;;;;;;42.60;18.20;;;4.40;99.90;;;;;;5083227;28;20061;-75
2021/03/04 02:18:34;;;;;;;42.08;18.17;;;4.40;99.90;;;;;;5055131;28;20404;-75
2021/03/04 02:21:25;;;;;;;44.35;18.20;;;4.40;99.90;;;;;;5049945;28;20029;-75
2021/03/04 02:24:28;;;;;;;37.53;17.05;;;4.40;99.90;;;;;;5051136;28;20032;-75
2021/03/04 02:27:13;;;;;;;41.17;17.83;;;4.40;99.90;;;;;;5048834;28;20074;-75
2021/03/04 02:30:03;;;;;;;35.55;16.75;;;4.50;99.90;;;;;;5078983;28;20029;-75
2021/03/04 02:32:31;;;;;;;35.40;16.30;;;4.60;99.90;;;;;;5032815;28;20033;-75
2021/03/04 02:35:14;;;;;;;43.30;19.17;;;4.60;99.90;;;;;;5050633;28;20021;-75
2021/03/04 02:37:49;;;;;;;44.88;18.65;;;4.50;99.90;;;;;;5047190;28;20087;-75
2021/03/04 02:40:16;;;;;;;45.05;19.88;;;4.50;99.90;;;;;;5051587;28;20079;-75
2021/03/04 02:42:43;;;;;;;41.85;19.25;;;4.50;99.90;;;;;;5031266;28;20268;-76
2021/03/04 02:45:11;;;;;;;39.22;17.73;;;4.50;99.90;;;;;;5051608;28;20021;-75
2021/03/04 02:47:38;;;;;;;40.75;19.08;;;4.40;99.90;;;;;;5047303;28;20029;-75
2021/03/04 02:50:06;;;;;;;43.05;18.42;;;4.40;99.90;;;;;;5050857;28;20059;-75
2021/03/04 02:52:34;;;;;;;39.70;18.80;;;4.40;99.90;;;;;;5050969;28;20113;-75
2021/03/04 02:55:01;;;;;;;41.42;18.33;;;4.40;99.90;;;;;;5051408;28;20049;-75
2021/03/04 02:57:29;;;;;;;35.30;17.10;;;4.40;99.90;;;;;;5049766;28;20155;-75
2021/03/04 02:59:55;;;;;;;35.20;16.67;;;4.40;99.90;;;;;;5051248;28;20025;-75
2021/03/04 03:02:22;;;;;;;32.03;13.95;;;4.40;99.90;;;;;;5051170;28;20082;-75
2021/03/04 03:04:48;;;;;;;33.30;15.27;;;4.40;99.90;;;;;;5051238;28;20017;-75
2021/03/04 03:07:14;;;;;;;38.30;16.95;;;4.40;99.90;;;;;;5048481;28;20534;-74
2021/03/04 03:09:44;;;;;;;41.53;16.23;;;4.40;99.90;;;;;;5049752;28;20696;-75
2021/03/04 03:12:12;;;;;;;37.65;16.83;;;4.50;99.90;;;;;;5050586;28;20037;-75
2021/03/04 03:14:37;;;;;;;38.63;18.27;;;4.60;99.90;;;;;;5048421;28;20078;-75
2021/03/04 03:17:06;;;;;;;41.30;17.95;;;4.60;99.90;;;;;;5048194;28;20573;-75
2021/03/04 03:19:32;;;;;;;42.00;18.50;;;4.70;99.90;;;;;;5049594;28;20560;-75
2021/03/04 03:21:58;;;;;;;40.33;17.25;;;4.70;99.90;;;;;;5050557;28;20024;-75
2021/03/04 03:24:24;;;;;;;41.08;17.98;;;4.60;99.90;;;;;;5050614;28;20407;-75
2021/03/04 03:26:50;;;;;;;37.13;17.15;;;4.70;99.90;;;;;;5049692;28;20036;-75
2021/03/04 03:29:16;;;;;;;41.85;17.30;;;4.70;99.90;;;;;;5050742;28;20029;-75
2021/03/04 03:31:46;;;;;;;38.13;18.40;;;4.60;99.90;;;;;;5032868;28;20033;-75
2021/03/04 03:34:12;;;;;;;41.00;18.17;;;4.50;99.90;;;;;;5049451;28;20049;-75
2021/03/04 03:36:37;;;;;;;44.30;19.23;;;4.60;99.90;;;;;;5049124;28;20021;-75
2021/03/04 03:39:07;;;;;;;43.15;19.00;;;4.60;99.90;;;;;;5050410;28;20485;-75
2021/03/04 03:41:39;;;;;;;49.65;18.48;;;4.70;99.90;;;;;;5046568;28;20159;-74
2021/03/04 03:44:07;;;;;;;42.70;17.48;;;4.70;99.90;;;;;;5048362;28;20056;-75
2021/03/04 03:46:34;;;;;;;35.05;17.00;;;4.60;99.90;;;;;;5049176;28;20036;-75
2021/03/04 03:49:05;;;;;;;35.78;17.38;;;4.60;99.90;;;;;;5049225;28;20036;-75
2021/03/04 03:51:33;;;;;;;39.42;18.40;;;4.50;99.90;;;;;;5049834;28;20033;-75
2021/03/04 03:54:00;;;;;;;33.78;16.85;;;4.50;99.90;;;;;;5047844;28;20074;-75
2021/03/04 03:56:28;;;;;;;36.53;17.73;;;4.50;99.90;;;;;;5048711;28;20067;-75
2021/03/04 03:58:58;;;;;;;48.45;19.08;;;4.50;99.90;;;;;;5050157;28;20017;-76
2021/03/04 04:01:28;;;;;;;44.47;19.70;;;4.60;99.90;;;;;;5032665;28;20021;-75
2021/03/04 04:03:57;;;;;;;39.55;18.77;;;4.70;99.90;;;;;;5050287;28;20021;-75
2021/03/04 04:06:28;;;;;;;41.28;18.75;;;4.60;99.90;;;;;;5048688;28;20063;-75
2021/03/04 04:08:55;;;;;;;40.30;17.70;;;4.60;99.90;;;;;;5048621;28;20083;-75
2021/03/04 04:11:25;;;;;;;64.57;25.20;;;4.60;99.90;;;;;;5049757;28;20055;-75
2021/03/04 04:13:53;;;;;;;47.28;20.20;;;4.50;99.90;;;;;;5050005;28;20055;-76
2021/03/04 04:16:19;;;;;;;40.70;17.88;;;4.60;99.90;;;;;;5078292;28;20044;-75
2021/03/04 04:18:46;;;;;;;43.22;19.90;;;4.50;99.90;;;;;;5049836;28;20703;-75
2021/03/04 04:21:13;;;;;;;38.08;17.58;;;4.50;99.90;;;;;;5049007;28;20728;-75
2021/03/04 04:23:41;;;;;;;42.15;19.50;;;4.60;99.90;;;;;;5049926;28;20104;-75
2021/03/04 04:26:07;;;;;;;39.30;18.60;;;4.60;99.90;;;;;;5049600;28;20033;-75
2021/03/04 04:28:33;;;;;;;40.80;18.67;;;4.70;99.90;;;;;;5049044;28;20550;-75
2021/03/04 04:30:58;;;;;;;44.22;19.02;;;4.70;99.90;;;;;;5048257;28;20086;-75
2021/03/04 04:33:24;;;;;;;35.55;17.30;;;4.60;99.90;;;;;;5049841;28;20044;-75
2021/03/04 04:35:50;;;;;;;37.05;18.02;;;4.60;99.90;;;;;;5049588;28;20029;-75
2021/03/04 04:38:16;;;;;;;34.28;16.33;;;4.50;99.90;;;;;;5048451;28;20395;-75
2021/03/04 04:40:42;;;;;;;37.65;16.95;;;4.40;99.90;;;;;;5049585;28;20525;-75
2021/03/04 04:43:08;;;;;;;37.42;16.13;;;4.50;99.90;;;;;;5046917;28;20029;-75
2021/03/04 04:45:34;;;;;;;37.88;17.42;;;4.50;99.90;;;;;;5049418;28;20086;-75
2021/03/04 04:47:59;;;;;;;36.75;17.45;;;4.50;99.90;;;;;;5048329;28;20112;-75
2021/03/04 04:50:25;;;;;;;38.17;17.42;;;4.50;99.90;;;;;;5049362;28;20033;-75
2021/03/04 04:52:51;;;;;;;42.70;18.48;;;4.50;99.90;;;;;;5048181;28;20464;-75
2021/03/04 04:55:16;;;;;;;43.08;18.15;;;4.60;99.90;;;;;;5049496;28;20484;-75
2021/03/04 04:57:42;;;;;;;40.65;17.95;;;4.60;99.90;;;;;;5013701;28;20025;-75
2021/03/04 05:00:09;;;;;;;45.05;17.58;;;4.50;99.90;;;;;;5048339;28;20136;-75
2021/03/04 05:02:36;;;;;;;39.22;18.50;;;4.50;99.90;;;;;;5048072;28;20032;-75
2021/03/04 05:05:04;;;;;;;42.17;18.63;;;4.50;99.90;;;;;;5049369;28;20095;-75
2021/03/04 05:07:29;;;;;;;37.42;17.88;;;4.40;99.90;;;;;;5046784;28;20033;-75
2021/03/04 05:09:55;;;;;;;33.33;17.02;;;4.50;99.90;;;;;;5049128;28;20033;-75
2021/03/04 05:12:21;;;;;;;39.13;16.98;;;4.40;99.90;;;;;;5048207;28;20041;-75
2021/03/04 05:14:47;;;;;;;36.40;17.83;;;4.40;99.90;;;;;;5048065;28;20500;-75
2021/03/04 05:17:13;;;;;;;36.50;16.40;;;4.40;99.90;;;;;;5048086;28;20033;-76
2021/03/04 05:19:39;;;;;;;39.13;16.38;;;4.40;99.90;;;;;;5049508;28;20391;-74
2021/03/04 05:22:05;;;;;;;40.80;16.20;;;4.40;99.90;;;;;;5047974;28;20029;-76
2021/03/04 05:24:31;;;;;;;30.02;14.55;;;4.30;99.90;;;;;;5048251;28;20033;-75
2021/03/04 05:26:56;;;;;;;37.35;16.63;;;4.40;99.90;;;;;;5047613;28;20033;-76
2021/03/04 05:29:22;;;;;;;39.47;17.25;;;4.40;99.90;;;;;;5048131;28;20868;-76
2021/03/04 05:31:48;;;;;;;40.72;17.27;;;4.40;99.90;;;;;;5048106;28;20029;-76
2021/03/04 05:34:13;;;;;;;32.63;16.10;;;4.40;99.90;;;;;;5049307;28;20116;-75
2021/03/04 05:36:39;;;;;;;36.63;16.00;;;4.40;99.90;;;;;;5046508;28;20526;-75
2021/03/04 05:39:05;;;;;;;34.22;16.50;;;4.40;99.90;;;;;;5047800;28;20029;-76
2021/03/04 05:41:32;;;;;;;30.33;14.85;;;4.20;99.90;;;;;;5050017;28;20064;-76
2021/03/04 05:43:58;;;;;;;37.00;15.90;;;4.20;99.90;;;;;;5050073;28;20103;-76
2021/03/04 05:46:25;;;;;;;39.45;18.38;;;4.20;99.90;;;;;;5051238;28;20365;-75
2021/03/04 05:48:51;;;;;;;41.03;17.73;;;4.20;99.90;;;;;;5051553;28;20056;-76
2021/03/04 05:51:26;;;;;;;40.78;18.42;;;4.30;99.90;;;;;;5052172;28;20110;-75
2021/03/04 05:53:57;;;;;;;39.07;17.23;;;4.30;99.90;;;;;;5052811;28;20628;-75
2021/03/04 05:56:23;;;;;;;39.28;18.63;;;4.20;99.90;;;;;;5047873;28;20033;-75
2021/03/04 05:58:50;;;;;;;40.15;18.58;;;4.20;99.90;;;;;;5051061;28;20549;-75
2021/03/04 06:01:16;;;;;;;40.03;18.10;;;4.20;99.90;;;;;;5052466;28;20522;-75
2021/03/04 06:03:43;;;;;;;36.70;18.75;;;4.10;99.90;;;;;;5050862;28;20043;-75
2021/03/04 06:06:09;;;;;;;36.58;15.48;;;4.10;99.90;;;;;;5051574;28;20029;-76
2021/03/04 06:08:35;;;;;;;35.72;16.65;;;4.10;99.90;;;;;;5051507;28;20063;-76
2021/03/04 06:11:02;;;;;;;34.70;17.70;;;4.00;99.90;;;;;;5051981;28;20025;-76
2021/03/04 06:13:29;;;;;;;37.45;17.20;;;3.90;99.90;;;;;;5052383;28;20456;-75
2021/03/04 06:15:55;;;;;;;36.00;16.77;;;4.00;99.90;;;;;;5050665;28;20456;-74
2021/03/04 06:18:21;;;;;;;32.95;15.52;;;4.00;99.90;;;;;;5050398;28;20060;-75
2021/03/04 06:20:46;;;;;;;37.92;17.10;;;4.00;99.90;;;;;;5050599;28;20035;-76
2021/03/04 06:23:12;;;;;;;32.40;16.38;;;4.00;99.90;;;;;;5050425;28;20103;-74
2021/03/04 06:25:38;;;;;;;36.40;17.08;;;4.00;99.90;;;;;;5064562;28;20075;-76
2021/03/04 06:28:06;;;;;;;34.97;16.73;;;4.00;99.90;;;;;;5032701;28;20542;-76
2021/03/04 06:30:38;;;;;;;39.45;16.67;;;4.00;99.90;;;;;;5051845;28;20162;-75
2021/03/04 06:33:14;;;;;;;36.10;16.95;;;4.00;99.90;;;;;;5049681;28;20434;-75
2021/03/04 06:35:44;;;;;;;35.50;15.23;;;4.00;99.90;;;;;;5045902;28;20037;-75
2021/03/04 06:38:16;;;;;;;37.00;16.58;;;4.00;99.90;;;;;;5081208;28;20467;-75
2021/03/04 06:40:42;;;;;;;31.95;15.65;;;4.00;99.90;;;;;;5048193;28;20013;-76
2021/03/04 06:43:24;;;;;;;30.55;14.70;;;4.00;99.90;;;;;;5046155;28;20047;-76
2021/03/04 06:45:50;;;;;;;31.95;14.13;;;4.00;99.90;;;;;;5049390;28;20112;-75
2021/03/04 06:48:21;;;;;;;28.00;13.27;;;4.00;99.90;;;;;;5044838;28;20385;-75
2021/03/04 06:51:00;;;;;;;29.23;14.25;;;4.00;99.90;;;;;;5048707;28;20055;-76
2021/03/04 06:53:28;;;;;;;25.98;13.07;;;4.10;99.90;;;;;;5048548;28;20057;-75
2021/03/04 06:56:01;;;;;;;32.03;14.50;;;4.10;99.90;;;;;;5050516;28;20037;-75
2021/03/04 06:58:38;;;;;;;29.83;14.23;;;4.10;99.90;;;;;;5049317;28;20116;-74
2021/03/04 07:01:13;;;;;;;31.38;14.63;;;4.10;99.90;;;;;;5048235;28;20098;-76
2021/03/04 07:03:49;;;;;;;27.67;13.68;;;4.10;99.90;;;;;;5050625;28;20051;-76
2021/03/04 07:06:17;;;;;;;35.08;15.35;;;4.10;99.90;;;;;;5048180;28;20029;-76
2021/03/04 07:08:45;;;;;;;34.63;16.05;;;4.20;99.90;;;;;;5050771;28;20040;-76
2021/03/04 07:11:15;;;;;;;40.42;17.52;;;4.30;99.90;;;;;;5051002;28;20561;-75
2021/03/04 07:13:43;;;;;;;37.60;16.50;;;4.30;99.90;;;;;;5046807;28;20171;-76
2021/03/04 07:16:11;;;;;;;38.28;17.40;;;4.40;99.90;;;;;;5050143;28;20029;-74
2021/03/04 07:19:03;;;;;;;35.80;17.10;;;4.40;99.90;;;;;;5049757;28;20029;-75
2021/03/04 07:21:37;;;;;;;34.00;16.08;;;4.40;99.90;;;;;;5054868;28;20032;-74
2021/03/04 07:24:04;;;;;;;39.15;18.27;;;4.40;99.90;;;;;;5050399;28;20325;-76
2021/03/04 07:26:30;;;;;;;34.17;17.13;;;4.50;99.90;;;;;;5057071;28;20039;-76
2021/03/04 07:28:58;;;;;;;36.80;17.15;;;4.50;99.90;;;;;;5053221;28;20086;-75
2021/03/04 07:31:24;;;;;;;32.65;17.10;;;4.60;99.90;;;;;;5051268;28;20432;-76
2021/03/04 07:33:51;;;;;;;35.13;16.42;;;4.80;99.90;;;;;;5049274;28;20071;-75
2021/03/04 07:36:22;;;;;;;33.22;16.48;;;5.10;99.90;;;;;;5054670;28;20109;-76
2021/03/04 07:38:58;;;;;;;36.92;17.92;;;5.50;99.90;;;;;;5054614;28;20404;-76
2021/03/04 07:41:45;;;;;;;41.17;18.48;;;5.90;99.90;;;;;;5077942;28;20033;-76
2021/03/04 07:44:26;;;;;;;38.65;18.02;;;6.30;99.90;;;;;;5048900;28;20028;-75
2021/03/04 07:46:57;;;;;;;40.63;18.77;;;6.70;99.90;;;;;;5047779;28;20533;-74
2021/03/04 07:49:31;;;;;;;33.83;16.63;;;7.10;99.90;;;;;;5047937;28;20033;-76
2021/03/04 07:52:17;;;;;;;32.33;16.48;;;7.40;99.90;;;;;;5048958;28;20086;-75
2021/03/04 07:54:47;;;;;;;45.80;22.05;;;7.80;99.90;;;;;;5047041;28;20137;-76
2021/03/04 07:57:20;;;;;;;35.85;18.42;;;8.00;99.90;;;;;;5048577;28;20032;-76
2021/03/04 07:59:55;;;;;;;32.80;17.55;;;8.20;99.90;;;;;;5048315;28;20017;-74
2021/03/04 08:02:22;;;;;;;40.17;20.80;;;8.30;99.90;;;;;;5044814;28;20076;-76
2021/03/04 08:04:48;;;;;;;33.85;17.40;;;8.30;99.90;;;;;;5047440;28;20049;-74
2021/03/04 08:07:26;;;;;;;50.72;26.58;;;8.40;99.90;;;;;;5045217;28;20075;-75
2021/03/04 08:09:52;;;;;;;35.97;18.30;;;8.50;99.90;;;;;;5049697;28;20044;-76
2021/03/04 08:12:18;;;;;;;34.38;16.42;;;8.60;99.90;;;;;;5049610;28;20021;-75
2021/03/04 08:14:55;;;;;;;36.00;18.38;;;8.70;99.90;;;;;;5049707;28;20131;-75
2021/03/04 08:17:21;;;;;;;27.80;15.38;;;8.90;99.90;;;;;;5046882;28;20044;-76
2021/03/04 08:19:48;;;;;;;27.30;14.15;;;9.10;99.90;;;;;;5048367;28;20024;-76
2021/03/04 08:22:21;;;;;;;32.28;18.48;;;9.30;99.90;;;;;;5048261;28;20146;-75
2021/03/04 08:24:47;;;;;;;25.10;13.27;;;9.40;99.90;;;;;;5049351;28;20493;-75
2021/03/04 08:27:13;;;;;;;29.98;13.23;;;9.50;99.90;;;;;;5047883;28;20166;-75
2021/03/04 08:29:49;;;;;;;28.48;14.15;;;9.60;99.90;;;;;;5048267;28;20438;-76
2021/03/04 08:32:15;;;;;;;;;;;9.60;99.90;;;;;;5049238;28;20037;-75
2021/03/04 08:34:42;;;;;;;23.65;13.65;;;9.50;99.90;;;;;;5049540;28;19915;-75
2021/03/04 08:37:21;;;;;;;29.25;14.60;;;9.40;99.90;;;;;;5048045;28;20349;-76
2021/03/04 08:39:47;;;;;;;24.35;13.13;;;9.30;99.90;;;;;;5047391;28;20787;-76
2021/03/04 08:42:13;;;;;;;30.52;14.55;;;9.30;99.90;;;;;;5043896;28;20029;-76
2021/03/04 08:44:48;;;;;;;27.23;13.80;;;9.20;99.90;;;;;;5027885;28;20661;-75
2021/03/04 08:47:15;;;;;;;27.70;14.00;;;9.20;99.90;;;;;;5069367;28;20495;-76
2021/03/04 08:49:50;;;;;;;25.40;11.60;;;9.30;99.90;;;;;;5033032;28;20033;-75
2021/03/04 08:52:22;;;;;;;22.35;11.38;;;9.40;99.90;;;;;;5038232;28;20030;-75
2021/03/04 08:54:50;;;;;;;19.15;10.20;;;9.50;99.90;;;;;;5079554;28;20037;-76
2021/03/04 08:57:27;;;;;;;23.27;11.13;;;9.60;99.90;;;;;;5043222;28;20213;-76
2021/03/04 09:00:06;;;;;;;23.67;10.25;;;9.70;99.90;;;;;;5043368;28;20036;-74
2021/03/04 09:02:32;;;;;;;20.10;10.15;;;9.80;99.90;;;;;;5056815;28;20029;-73
2021/03/04 09:04:57;;;;;;;20.80;10.57;;;9.90;99.90;;;;;;5043334;28;20621;-75
2021/03/04 09:07:32;;;;;;;18.65;9.63;;;9.90;99.90;;;;;;5041837;28;20045;-75
2021/03/04 09:10:00;;;;;;;22.17;10.20;;;10.00;99.90;;;;;;5077481;28;20407;-74
2021/03/04 09:12:27;;;;;;;21.33;10.80;;;10.10;99.90;;;;;;5042737;28;20450;-75
2021/03/04 09:14:57;;;;;;;19.55;11.23;;;10.20;99.90;;;;;;5041531;28;20091;-73
2021/03/04 09:17:24;;;;;;;23.88;10.70;;;10.20;99.90;;;;;;5045656;28;20120;-73
2021/03/04 09:19:55;;;;;;;25.73;11.20;;;10.20;99.90;;;;;;5049352;28;20032;-74
2021/03/04 09:22:22;;;;;;;21.23;10.45;;;10.10;99.90;;;;;;5044042;28;20086;-74
2021/03/04 09:24:49;;;;;;;19.95;10.95;;;10.10;99.90;;;;;;5047592;28;20033;-72
2021/03/04 09:27:18;;;;;;;21.08;10.93;;;10.10;99.90;;;;;;5046656;28;20169;-75
2021/03/04 09:29:44;;;;;;;27.02;10.63;;;10.20;99.90;;;;;;5046654;28;20033;-75
2021/03/04 09:32:10;;;;;;;26.55;10.25;;;10.40;99.90;;;;;;5047689;28;20120;-72
2021/03/04 09:34:41;;;;;;;22.48;9.77;;;10.50;99.90;;;;;;5045496;28;20112;-74
2021/03/04 09:37:16;;;;;;;24.73;10.90;;;10.60;99.90;;;;;;5045965;28;20171;-74
2021/03/04 09:39:44;;;;;;;18.77;10.40;;;10.80;99.90;;;;;;5045090;28;20032;-74
2021/03/04 09:42:13;;;;;;;20.33;9.50;;;10.90;99.90;;;;;;5045737;28;20025;-73
2021/03/04 09:45:09;;;;;;;19.25;9.73;;;10.80;99.90;;;;;;5044445;28;20056;-75
2021/03/04 09:47:36;;;;;;;22.02;10.35;;;10.90;99.90;;;;;;5033619;28;20041;-74
2021/03/04 09:50:15;;;;;;;19.88;10.25;;;10.90;99.90;;;;;;5043874;28;20033;-75
2021/03/04 09:52:40;;;;;;;18.92;9.80;;;11.10;99.90;;;;;;5048558;28;20052;-75
2021/03/04 09:55:17;;;;;;;21.83;9.90;;;11.20;99.90;;;;;;5046303;28;20177;-75
2021/03/04 09:57:44;;;;;;;23.65;10.85;;;11.40;99.90;;;;;;5043132;28;20049;-74
2021/03/04 10:00:16;;;;;;;22.20;11.55;;;11.50;99.90;;;;;;5044924;28;20028;-73
2021/03/04 10:02:46;;;;;;;16.88;9.90;;;11.50;99.90;;;;;;5045509;28;20021;-72
2021/03/04 10:05:15;;;;;;;21.83;10.13;;;11.60;99.90;;;;;;5044692;28;20067;-76
2021/03/04 10:07:41;;;;;;;19.25;9.43;;;11.70;99.90;;;;;;5076507;28;20418;-75
2021/03/04 10:10:34;;;;;;;19.42;10.38;;;11.80;99.90;;;;;;5048036;28;20108;-74
2021/03/04 10:12:59;;;;;;;21.48;9.75;;;12.00;99.90;;;;;;5046109;28;20045;-74
2021/03/04 10:15:26;;;;;;;21.38;10.35;;;12.10;99.90;;;;;;5047863;28;20120;-73
2021/03/04 10:17:51;;;;;;;22.40;10.95;;;12.30;99.90;;;;;;5046882;28;20033;-74
2021/03/04 10:20:17;;;;;;;22.05;10.10;;;12.30;99.90;;;;;;5046861;28;20037;-75
2021/03/04 10:22:43;;;;;;;20.67;10.95;;;12.20;99.90;;;;;;5048753;28;20025;-75
2021/03/04 10:25:10;;;;;;;21.90;10.32;;;12.20;99.90;;;;;;5043273;28;20036;-75
2021/03/04 10:27:38;;;;;;;21.45;9.52;;;12.10;99.90;;;;;;5043855;28;20029;-74
2021/03/04 10:30:11;;;;;;;18.45;9.70;;;12.20;99.90;;;;;;5077865;28;20441;-74
2021/03/04 10:32:38;;;;;;;19.80;9.13;;;12.20;99.90;;;;;;5047518;28;20033;-74
2021/03/04 10:35:14;;;;;;;17.15;9.82;;;12.20;99.90;;;;;;5048158;28;20112;-74
2021/03/04 10:37:41;;;;;;;18.17;9.93;;;12.10;99.90;;;;;;5046368;28;20052;-75
2021/03/04 10:40:08;;;;;;;20.73;9.75;;;11.90;99.90;;;;;;5040380;28;20050;-74
2021/03/04 10:42:35;;;;;;;18.73;9.75;;;11.80;99.90;;;;;;5039036;28;20029;-74
2021/03/04 10:45:02;;;;;;;19.15;9.57;;;11.90;99.90;;;;;;5034887;28;20447;-75
2021/03/04 10:47:28;;;;;;;18.95;10.23;;;12.00;99.90;;;;;;5035626;28;20041;-74
2021/03/04 10:49:55;;;;;;;22.10;9.98;;;12.00;99.90;;;;;;5039127;28;20028;-75
2021/03/04 10:52:21;;;;;;;15.95;8.90;;;12.00;99.90;;;;;;5067263;28;20033;-76
2021/03/04 10:54:47;;;;;;;19.10;9.93;;;12.00;99.90;;;;;;5067117;28;20021;-73
2021/03/04 10:57:13;;;;;;;18.42;9.45;;;11.90;99.90;;;;;;5036129;28;20029;-74
2021/03/04 10:59:39;;;;;;;16.83;9.43;;;11.80;99.90;;;;;;5044421;28;20528;-75
2021/03/04 11:02:04;;;;;;;20.15;9.38;;;11.70;99.90;;;;;;5046556;28;20500;-75
2021/03/04 11:04:30;;;;;;;19.00;8.57;;;11.60;99.90;;;;;;5044984;28;20119;-75
2021/03/04 11:06:55;;;;;;;16.88;8.35;;;11.60;99.90;;;;;;5055868;28;20037;-73
2021/03/04 11:09:21;;;;;;;15.15;9.10;;;11.50;99.90;;;;;;5045770;28;20131;-74
2021/03/04 11:11:47;;;;;;;15.88;8.52;;;11.50;99.90;;;;;;5045966;28;20055;-75
2021/03/04 11:14:13;;;;;;;16.45;8.90;;;11.60;99.90;;;;;;5059529;28;20042;-75
2021/03/04 11:16:38;;;;;;;15.13;8.45;;;11.70;99.90;;;;;;5042374;28;20146;-74
2021/03/04 11:19:04;;;;;;;18.33;9.43;;;11.80;99.90;;;;;;5042272;28;20114;-74
2021/03/04 11:21:31;;;;;;;18.40;8.63;;;11.90;99.90;;;;;;5041533;28;20410;-74
2021/03/04 11:23:56;;;;;;;16.58;8.85;;;12.00;99.90;;;;;;5038236;28;20091;-75
2021/03/04 11:26:22;;;;;;;19.55;9.25;;;12.00;99.90;;;;;;5042563;28;20621;-74
2021/03/04 11:28:48;;;;;;;16.33;7.47;;;12.00;99.90;;;;;;5039233;28;20029;-75
2021/03/04 11:31:14;;;;;;;20.88;9.43;;;11.90;99.90;;;;;;5043677;28;20028;-75
2021/03/04 11:33:39;;;;;;;23.88;10.25;;;12.00;99.90;;;;;;5045329;28;20021;-74
2021/03/04 11:36:05;;;;;;;21.80;10.20;;;12.10;99.90;;;;;;5045802;28;20103;-74
2021/03/04 11:38:31;;;;;;;18.83;9.70;;;12.10;99.90;;;;;;5045101;28;20553;-74
2021/03/04 11:40:57;;;;;;;16.85;9.52;;;12.10;99.90;;;;;;5078406;28;20033;-75
2021/03/04 11:43:22;;;;;;;20.77;9.88;;;12.20;99.90;;;;;;5043107;28;20057;-74
2021/03/04 11:45:48;;;;;;;21.27;10.20;;;12.30;99.90;;;;;;5044787;28;20029;-74
2021/03/04 11:48:13;;;;;;;17.95;10.10;;;12.40;99.90;;;;;;5045003;28;20035;-75
2021/03/04 11:50:39;;;;;;;17.95;9.10;;;12.50;99.90;;;;;;5045094;28;20036;-73
2021/03/04 11:53:08;;;;;;;19.23;9.10;;;12.60;99.90;;;;;;5044970;28;20109;-76
2021/03/04 11:55:34;;;;;;;17.02;9.25;;;12.70;99.90;;;;;;5077552;28;20056;-74
2021/03/04 11:58:00;;;;;;;17.10;9.68;;;12.80;99.90;;;;;;5043368;28;20049;-73
2021/03/04 12:00:26;;;;;;;20.85;9.30;;;12.90;99.90;;;;;;5043301;28;20025;-75
2021/03/04 12:02:52;;;;;;;20.35;10.60;;;12.80;99.60;;;;;;5044986;28;20021;-74
2021/03/04 12:05:18;;;;;;;17.65;9.68;;;12.80;98.80;;;;;;5044498;28;20098;-72
2021/03/04 12:07:44;;;;;;;22.27;10.60;;;12.80;97.90;;;;;;5042316;28;20535;-75
2021/03/04 12:10:11;;;;;;;20.00;9.65;;;12.90;99.00;;;;;;5045618;28;20041;-74
2021/03/04 12:12:37;;;;;;;18.67;10.48;;;13.00;99.90;;;;;;5043884;28;20051;-72
2021/03/04 12:15:04;;;;;;;26.63;10.18;;;13.10;99.50;;;;;;5043040;28;20737;-74
2021/03/04 12:17:30;;;;;;;22.60;10.57;;;13.30;97.10;;;;;;5044162;28;20067;-73
2021/03/04 12:19:55;;;;;;;18.38;9.45;;;13.30;96.60;;;;;;5044622;28;20036;-74
2021/03/04 12:22:21;;;;;;;23.60;11.35;;;13.30;97.00;;;;;;5040990;28;20053;-73
2021/03/04 12:24:47;;;;;;;20.63;10.25;;;13.30;98.70;;;;;;5042942;28;20489;-73
2021/03/04 12:27:15;;;;;;;19.92;9.98;;;13.30;98.30;;;;;;5043619;28;20128;-75
2021/03/04 12:29:41;;;;;;;22.50;11.48;;;13.20;98.30;;;;;;5042034;28;20040;-76
2021/03/04 12:32:07;;;;;;;18.15;10.05;;;13.30;99.80;;;;;;5042953;28;20037;-74
2021/03/04 12:34:33;;;;;;;21.10;10.50;;;13.30;99.90;;;;;;5040614;28;20503;-75
2021/03/04 12:36:58;;;;;;;18.27;10.02;;;13.40;97.50;;;;;;5038126;28;20029;-72
2021/03/04 12:39:24;;;;;;;25.15;11.15;;;13.40;97.30;;;;;;5044430;28;20064;-75
2021/03/04 12:41:50;;;;;;;22.80;11.10;;;13.50;94.60;;;;;;5043217;28;20037;-76